Peace Valley, Missouri
Current Conditions -  °F | °C
As of 11:53 AM on Friday 21 Nov 2014 (Local Time) from KUNO Reporting Station
Overcast Overcast  
Wind Chill: 34°   Ceiling: 1700
Heat Index: 40°   Visibility: 10mi
Dew Point: 25°   Wind: 9mph
Humidity: 55%   Direction: 120°ESE
Pressure: 30.3"   Gusts: NA
Location:  36.87°N, 91.73°W
Report Text: KUNO 211753Z AUTO 12008KT 10SM OVC017 04/M04 A3030 RMK AO2 SLP267 T00441039 10050 20011 58007
Loading
Personal Weather Stations






























Interactive Weather Map New forecast layout! Learn more

10-Day Weather Forecast

Advertisements
Track Severe Weather on mobile